Time;durP1;ratioP1;P1;durP2;ratioP2;P2;SDS_P1;SDS_P2;PMS_P1;PMS_P2;Temp;Humidity;BMP_temperature;BMP_pressure;BME280_temperature;BME280_humidity;BME280_pressure;Samples;Min_cycle;Max_cycle;Signal;HPM_P1;HPM_P2
2022/12/24 00:00:33;;;;;;;31.65;2.38;;;8.30;99.90;;;;;;5017228;28;20038;-81
2022/12/24 00:02:59;;;;;;;2.70;0.80;;;8.30;99.90;;;;;;4975053;28;20040;-77
2022/12/24 00:05:25;;;;;;;5.50;1.10;;;8.30;99.90;;;;;;5008045;28;20034;-79
2022/12/24 00:07:51;;;;;;;7.57;1.30;;;8.20;99.90;;;;;;4990398;28;20041;-78
2022/12/24 00:10:18;;;;;;;67.25;3.72;;;8.30;99.90;;;;;;4975944;28;20072;-79
2022/12/24 00:12:44;;;;;;;8.73;1.20;;;8.20;99.90;;;;;;4979158;28;20081;-79
2022/12/24 00:15:10;;;;;;;16.45;1.30;;;8.10;99.90;;;;;;4990674;28;20042;-79
2022/12/24 00:17:36;;;;;;;7.15;1.27;;;8.10;99.90;;;;;;4989709;28;20137;-79
2022/12/24 00:20:03;;;;;;;4.18;0.70;;;8.10;99.90;;;;;;4990530;28;20565;-79
2022/12/24 00:22:29;;;;;;;39.30;2.15;;;8.10;99.90;;;;;;4993745;28;20034;-78
2022/12/24 00:24:55;;;;;;;4.30;0.98;;;8.00;99.90;;;;;;5011890;28;20038;-79
2022/12/24 00:27:21;;;;;;;6.90;1.08;;;8.00;99.90;;;;;;4996150;28;20042;-78
2022/12/24 00:29:47;;;;;;;5.75;0.80;;;8.00;99.90;;;;;;4980927;28;20039;-81
2022/12/24 00:32:13;;;;;;;61.63;4.10;;;8.00;99.90;;;;;;4996180;28;20505;-78
2022/12/24 00:34:39;;;;;;;5.47;0.95;;;8.00;99.90;;;;;;5010740;28;20037;-76
2022/12/24 00:37:05;;;;;;;42.70;2.08;;;8.00;99.90;;;;;;4982447;28;20132;-79
2022/12/24 00:39:31;;;;;;;24.92;3.10;;;8.00;99.90;;;;;;5008897;28;20423;-79
2022/12/24 00:41:58;;;;;;;8.90;1.10;;;7.90;99.90;;;;;;4968617;28;20116;-80
2022/12/24 00:44:23;;;;;;;4.50;0.80;;;7.90;99.90;;;;;;4977893;28;20125;-81
2022/12/24 00:46:49;;;;;;;9.20;1.80;;;7.90;99.90;;;;;;4977551;28;20439;-79
2022/12/24 00:49:16;;;;;;;19.15;1.60;;;7.90;99.90;;;;;;5010494;28;20405;-80
2022/12/24 00:51:41;;;;;;;103.45;5.28;;;7.90;99.90;;;;;;5015894;28;20065;-79
2022/12/24 00:54:08;;;;;;;31.85;2.38;;;7.90;99.90;;;;;;4998150;28;20033;-78
2022/12/24 00:56:34;;;;;;;19.58;2.17;;;7.90;99.90;;;;;;4997186;28;20064;-80
2022/12/24 00:59:00;;;;;;;20.05;1.05;;;7.80;99.90;;;;;;4998083;28;20034;-77
2022/12/24 01:01:26;;;;;;;80.68;4.55;;;7.80;99.90;;;;;;4998033;28;20046;-80
2022/12/24 01:05:08;;;;;;;5.03;0.57;;;7.80;99.90;;;;;;4981329;28;20037;-79
2022/12/24 01:06:38;;;;;;;8.80;0.90;;;7.70;99.90;;;;;;5000209;28;20034;-79
2022/12/24 01:09:05;;;;;;;4.40;0.77;;;7.70;99.90;;;;;;4978960;28;20048;-78
2022/12/24 01:11:31;;;;;;;61.17;3.38;;;7.70;99.90;;;;;;5022748;28;20038;-79
2022/12/24 01:13:57;;;;;;;10.48;1.02;;;7.70;99.90;;;;;;5001122;28;20033;-78
2022/12/24 01:16:23;;;;;;;8.45;0.85;;;7.60;99.90;;;;;;4991492;28;20026;-79
2022/12/24 01:18:48;;;;;;;8.52;1.17;;;7.60;99.90;;;;;;5010076;28;20471;-79
2022/12/24 01:21:15;;;;;;;11.60;1.00;;;7.70;99.90;;;;;;4992449;28;20029;-78
2022/12/24 01:23:40;;;;;;;9.93;1.83;;;7.70;99.90;;;;;;4996500;28;20033;-79
2022/12/24 01:26:06;;;;;;;5.28;1.45;;;7.70;99.90;;;;;;4998337;28;20572;-78
2022/12/24 01:28:32;;;;;;;6.55;1.13;;;7.70;99.90;;;;;;5012491;28;20030;-78
2022/12/24 01:30:58;;;;;;;3.65;0.75;;;7.70;99.90;;;;;;4994654;28;20044;-77
2022/12/24 01:33:30;;;;;;;6.15;0.80;;;7.70;99.90;;;;;;5009593;28;20129;-78
2022/12/24 01:35:55;;;;;;;24.15;1.27;;;7.70;99.90;;;;;;5014738;28;20029;-79
2022/12/24 01:38:21;;;;;;;10.95;1.00;;;7.70;99.90;;;;;;5017784;28;20029;-80
2022/12/24 01:43:32;;;;;;;5.55;0.90;;;7.60;99.90;;;;;;5012540;28;20401;-78
2022/12/24 01:46:27;;;;;;;9.13;0.98;;;7.50;99.90;;;;;;5009265;28;20109;-79
2022/12/24 01:48:56;;;;;;;5.65;0.95;;;7.50;99.90;;;;;;4996795;28;20038;-80
2022/12/24 01:51:28;;;;;;;7.80;0.90;;;7.50;99.90;;;;;;5017576;28;20401;-79
2022/12/24 01:53:59;;;;;;;10.30;0.90;;;7.50;99.90;;;;;;5002204;28;20187;-80
2022/12/24 01:56:27;;;;;;;7.95;1.02;;;7.50;99.90;;;;;;5032821;28;20137;-81
2022/12/24 01:58:59;;;;;;;23.02;4.20;;;7.50;99.90;;;;;;4987108;28;20042;-80
2022/12/24 02:01:25;;;;;;;5.25;1.00;;;7.50;99.90;;;;;;4993242;28;20038;-78
2022/12/24 02:03:51;;;;;;;7.68;0.90;;;7.50;99.90;;;;;;5003750;28;20032;-80
2022/12/24 02:06:19;;;;;;;8.02;1.02;;;7.50;99.90;;;;;;4991861;28;20062;-80
2022/12/24 02:08:46;;;;;;;5.40;0.85;;;7.50;99.90;;;;;;5005048;28;20680;-80
2022/12/24 02:11:19;;;;;;;9.18;1.30;;;7.50;99.90;;;;;;5039784;28;20080;-79
2022/12/24 02:13:53;;;;;;;9.00;1.10;;;7.50;99.90;;;;;;5002051;28;20067;-78
2022/12/24 02:16:54;;;;;;;4.28;1.00;;;7.50;99.90;;;;;;4998240;28;20026;-79
2022/12/24 02:20:11;;;;;;;7.28;1.40;;;7.50;99.90;;;;;;5012033;28;20034;-79
2022/12/24 02:23:12;;;;;;;2.80;1.00;;;7.50;99.90;;;;;;5004914;28;20041;-79
2022/12/24 02:25:49;;;;;;;1.63;0.70;;;7.40;99.90;;;;;;4975859;28;20038;-79
2022/12/24 02:28:37;;;;;;;8.52;1.45;;;7.40;99.90;;;;;;4990895;28;20061;-80
2022/12/24 02:31:23;;;;;;;4.57;1.40;;;7.40;99.90;;;;;;4992640;28;20038;-80
2022/12/24 02:33:56;;;;;;;6.32;0.95;;;7.40;99.90;;;;;;4993681;28;20376;-78
2022/12/24 02:36:39;;;;;;;7.88;0.93;;;7.40;99.90;;;;;;5002852;28;20061;-79
2022/12/24 02:39:10;;;;;;;2.83;0.93;;;7.40;99.90;;;;;;5007370;28;20428;-78
2022/12/24 02:44:32;;;;;;;8.95;1.05;;;7.40;99.90;;;;;;4989225;28;20521;-79
2022/12/24 02:47:01;;;;;;;4.10;1.00;;;7.40;99.90;;;;;;4995771;28;20066;-80
2022/12/24 02:49:26;;;;;;;9.43;1.75;;;7.40;99.90;;;;;;5003830;28;20080;-80
2022/12/24 02:51:52;;;;;;;6.32;1.10;;;7.40;99.90;;;;;;5020147;28;20042;-79
2022/12/24 02:54:18;;;;;;;10.65;1.38;;;7.40;99.90;;;;;;5026439;28;20046;-78
2022/12/24 02:57:05;;;;;;;6.97;1.45;;;7.40;99.90;;;;;;4984472;28;20056;-79
2022/12/24 02:59:59;;;;;;;7.35;1.20;;;7.40;99.90;;;;;;5009665;28;20030;-77
2022/12/24 03:03:06;;;;;;;7.60;1.73;;;7.40;99.90;;;;;;4976485;28;20459;-80
2022/12/24 03:05:50;;;;;;;29.65;1.95;;;7.40;99.90;;;;;;5005062;28;20124;-79
2022/12/24 03:08:38;;;;;;;8.13;1.27;;;7.40;99.90;;;;;;5002571;28;20066;-78
2022/12/24 03:11:10;;;;;;;8.35;1.02;;;7.40;99.90;;;;;;5003976;28;20029;-79
2022/12/24 03:13:37;;;;;;;19.95;1.98;;;7.30;99.90;;;;;;5004878;28;20515;-79
2022/12/24 03:16:06;;;;;;;3.03;0.98;;;7.30;99.90;;;;;;5037972;28;20049;-79
2022/12/24 03:18:32;;;;;;;11.15;1.50;;;7.30;99.90;;;;;;5002841;28;20045;-79
2022/12/24 03:21:17;;;;;;;6.97;2.00;;;7.30;99.90;;;;;;5021780;28;20105;-79
2022/12/24 03:23:43;;;;;;;6.45;1.58;;;7.20;99.90;;;;;;5005238;28;20084;-79
2022/12/24 03:26:11;;;;;;;26.88;1.75;;;7.20;99.90;;;;;;4999791;28;20083;-80
2022/12/24 03:28:39;;;;;;;16.17;1.70;;;7.20;99.90;;;;;;5014265;28;20029;-80
2022/12/24 03:31:06;;;;;;;7.90;1.02;;;7.20;99.90;;;;;;5007436;28;20030;-80
2022/12/24 03:33:33;;;;;;;16.83;1.48;;;7.20;99.90;;;;;;5024006;28;20069;-79
2022/12/24 03:35:58;;;;;;;29.55;2.15;;;7.20;99.90;;;;;;4992254;28;20053;-79
2022/12/24 03:38:24;;;;;;;21.83;1.70;;;7.20;99.90;;;;;;5006260;28;20061;-79
2022/12/24 03:40:51;;;;;;;9.23;1.40;;;7.20;99.90;;;;;;4987799;28;20037;-80
2022/12/24 03:43:16;;;;;;;5.88;1.20;;;7.20;99.90;;;;;;5010357;28;20044;-80
2022/12/24 03:45:42;;;;;;;8.05;1.20;;;7.20;99.90;;;;;;4984470;28;20036;-78
2022/12/24 03:48:08;;;;;;;6.50;1.10;;;7.20;99.90;;;;;;4989807;28;20061;-81
2022/12/24 03:50:34;;;;;;;10.45;1.45;;;7.20;99.90;;;;;;5007693;28;20061;-79
2022/12/24 03:53:00;;;;;;;11.82;2.00;;;7.20;99.90;;;;;;4993645;28;20060;-79
2022/12/24 03:55:26;;;;;;;8.77;1.33;;;7.20;99.90;;;;;;5008294;28;20406;-79
2022/12/24 03:57:51;;;;;;;4.82;1.48;;;7.20;99.90;;;;;;5010164;28;20430;-78
2022/12/24 04:00:18;;;;;;;6.15;1.40;;;7.20;99.90;;;;;;5013252;28;20117;-78
2022/12/24 04:02:44;;;;;;;5.50;1.38;;;7.20;99.90;;;;;;5004785;28;20310;-81
2022/12/24 04:05:16;;;;;;;7.38;1.65;;;7.20;99.90;;;;;;4987858;28;20061;-78
2022/12/24 04:07:42;;;;;;;16.17;1.45;;;7.20;99.90;;;;;;5012155;28;20550;-79
2022/12/24 04:10:08;;;;;;;7.32;1.27;;;7.20;99.90;;;;;;5012021;28;20034;-80
2022/12/24 04:12:35;;;;;;;8.23;1.20;;;7.20;99.90;;;;;;4997281;28;20031;-77
2022/12/24 04:15:01;;;;;;;3.40;1.33;;;7.20;99.90;;;;;;5004372;28;20564;-78
2022/12/24 04:17:27;;;;;;;8.30;1.63;;;7.20;99.90;;;;;;4986192;28;20114;-78
2022/12/24 04:19:52;;;;;;;30.00;2.58;;;7.20;99.90;;;;;;5014866;28;20038;-79
2022/12/24 04:22:19;;;;;;;6.55;1.42;;;7.20;99.90;;;;;;5005828;28;20057;-79
2022/12/24 04:24:45;;;;;;;6.57;1.42;;;7.20;99.90;;;;;;5023139;28;20121;-78
2022/12/24 04:27:13;;;;;;;20.77;1.55;;;7.20;99.90;;;;;;5033381;28;20049;-78
2022/12/24 04:29:39;;;;;;;5.43;1.70;;;7.20;99.90;;;;;;5003422;28;20046;-79
2022/12/24 04:32:05;;;;;;;9.73;1.30;;;7.20;99.90;;;;;;5022840;28;20039;-78
2022/12/24 04:34:31;;;;;;;20.08;1.85;;;7.20;99.90;;;;;;5009389;28;20038;-79
2022/12/24 04:36:57;;;;;;;10.55;1.30;;;7.20;99.90;;;;;;5016512;28;20037;-78
2022/12/24 04:39:23;;;;;;;13.23;1.38;;;7.10;99.90;;;;;;5004677;28;20038;-78
2022/12/24 04:41:49;;;;;;;11.73;2.00;;;7.20;99.90;;;;;;4995217;28;20529;-81
2022/12/24 04:44:15;;;;;;;14.50;1.77;;;7.20;99.90;;;;;;5002301;28;20034;-78
2022/12/24 04:46:41;;;;;;;5.75;1.25;;;7.10;99.90;;;;;;5013387;28;20037;-81
2022/12/24 04:49:07;;;;;;;39.70;2.72;;;7.10;99.90;;;;;;4978696;28;20328;-79
2022/12/24 04:51:33;;;;;;;11.07;1.45;;;7.10;99.90;;;;;;4995876;28;20113;-81
2022/12/24 04:53:59;;;;;;;7.95;1.55;;;7.10;99.90;;;;;;4998980;28;20066;-79
2022/12/24 04:56:28;;;;;;;30.27;2.60;;;7.00;99.90;;;;;;5006620;28;20061;-78
2022/12/24 04:58:54;;;;;;;9.80;1.27;;;7.00;99.90;;;;;;5013236;28;20048;-79
2022/12/24 05:01:24;;;;;;;7.45;1.33;;;7.00;99.90;;;;;;4975185;28;20129;-78
2022/12/24 05:03:51;;;;;;;10.45;2.03;;;7.00;99.90;;;;;;5007921;28;20110;-79
2022/12/24 05:06:19;;;;;;;10.93;1.45;;;7.00;99.90;;;;;;5011263;28;20040;-78
2022/12/24 05:08:45;;;;;;;7.13;1.23;;;7.00;99.90;;;;;;5012873;28;20032;-79
2022/12/24 05:11:15;;;;;;;10.10;1.90;;;7.00;99.90;;;;;;5002871;28;20022;-78
2022/12/24 05:13:43;;;;;;;9.95;2.35;;;7.00;99.90;;;;;;4989110;28;20089;-78
2022/12/24 05:16:09;;;;;;;9.23;1.33;;;7.00;99.90;;;;;;5015543;28;20034;-78
2022/12/24 05:18:35;;;;;;;14.25;2.03;;;7.00;99.90;;;;;;5017051;28;20036;-80
2022/12/24 05:21:01;;;;;;;10.13;1.65;;;7.00;99.90;;;;;;4996811;28;20062;-77
2022/12/24 05:26:20;;;;;;;8.55;1.80;;;7.00;99.90;;;;;;5014544;28;20041;-78
2022/12/24 05:28:55;;;;;;;8.98;1.50;;;7.00;99.90;;;;;;4993879;28;20037;-77
2022/12/24 05:31:23;;;;;;;7.13;1.63;;;7.00;99.90;;;;;;4995679;28;20035;-78
2022/12/24 05:33:48;;;;;;;7.00;1.95;;;7.00;99.90;;;;;;5014826;28;20030;-77
2022/12/24 05:36:15;;;;;;;11.68;1.65;;;7.00;99.90;;;;;;4982236;28;20045;-80
2022/12/24 05:38:41;;;;;;;16.10;1.60;;;7.00;99.90;;;;;;4995640;28;20439;-80
2022/12/24 05:41:08;;;;;;;6.15;1.40;;;7.10;99.90;;;;;;4999010;28;20048;-79
2022/12/24 05:43:35;;;;;;;9.68;1.77;;;7.00;99.90;;;;;;5005765;28;20030;-79
2022/12/24 05:46:05;;;;;;;7.80;1.63;;;7.00;99.90;;;;;;5030968;28;20030;-77
2022/12/24 05:48:31;;;;;;;8.27;1.52;;;7.00;99.90;;;;;;5015906;28;20497;-77
2022/12/24 05:50:57;;;;;;;8.45;1.83;;;7.10;99.90;;;;;;5009651;28;20025;-80
2022/12/24 05:53:23;;;;;;;10.15;1.80;;;7.10;99.90;;;;;;4999027;28;20045;-78
2022/12/24 05:55:49;;;;;;;6.55;1.70;;;7.00;99.90;;;;;;5020408;28;20041;-80
2022/12/24 05:58:15;;;;;;;6.22;1.70;;;7.10;99.90;;;;;;4992328;28;20033;-79
2022/12/24 06:00:41;;;;;;;7.50;1.65;;;7.10;99.90;;;;;;5000033;28;20148;-80
2022/12/24 06:03:08;;;;;;;9.75;1.70;;;7.10;99.90;;;;;;4998201;28;20113;-79
2022/12/24 06:05:34;;;;;;;6.30;1.20;;;7.10;99.90;;;;;;4982444;28;20025;-80
2022/12/24 06:07:59;;;;;;;7.68;1.70;;;7.00;99.90;;;;;;4999116;28;20054;-78
2022/12/24 06:10:25;;;;;;;8.15;1.98;;;7.10;99.90;;;;;;5014556;28;20192;-78
2022/12/24 06:12:51;;;;;;;7.35;1.67;;;7.00;99.90;;;;;;4970266;28;20045;-78
2022/12/24 06:15:17;;;;;;;9.23;1.60;;;7.00;99.90;;;;;;5018182;28;20044;-81
2022/12/24 06:17:42;;;;;;;9.40;1.88;;;7.00;99.90;;;;;;5017312;28;20441;-82
2022/12/24 06:20:08;;;;;;;6.07;1.50;;;7.00;99.90;;;;;;4983947;28;20022;-79
2022/12/24 06:22:34;;;;;;;8.35;1.63;;;7.00;99.90;;;;;;5014794;28;20568;-81
2022/12/24 06:24:59;;;;;;;17.00;1.58;;;6.90;99.90;;;;;;5005195;28;20034;-80
2022/12/24 06:27:26;;;;;;;11.77;1.77;;;7.00;99.90;;;;;;4983040;28;20030;-81
2022/12/24 06:29:51;;;;;;;4.95;1.52;;;7.00;99.90;;;;;;4994401;28;20088;-80
2022/12/24 06:32:17;;;;;;;8.55;1.67;;;7.00;99.90;;;;;;5029206;28;20034;-81
2022/12/24 06:34:43;;;;;;;11.63;2.33;;;7.00;99.90;;;;;;4978857;28;20044;-80
2022/12/24 06:37:17;;;;;;;9.55;1.70;;;7.00;99.90;;;;;;4994569;28;20041;-80
2022/12/24 06:39:45;;;;;;;7.10;1.52;;;7.00;99.90;;;;;;4996691;28;20121;-82
2022/12/24 06:42:12;;;;;;;11.10;2.17;;;7.00;99.90;;;;;;4995302;28;20654;-81
2022/12/24 06:44:38;;;;;;;6.38;1.50;;;7.00;99.90;;;;;;4978754;28;20101;-80
2022/12/24 06:47:04;;;;;;;11.13;1.70;;;7.00;99.90;;;;;;4979763;28;20481;-80
2022/12/24 06:49:30;;;;;;;9.35;1.50;;;7.00;99.90;;;;;;4996977;28;20032;-81
2022/12/24 06:51:55;;;;;;;6.40;1.35;;;7.00;99.90;;;;;;4975929;28;20037;-78
2022/12/24 06:54:21;;;;;;;8.27;1.63;;;7.00;99.90;;;;;;4976689;28;20022;-81
2022/12/24 06:56:47;;;;;;;9.40;1.23;;;7.00;99.90;;;;;;4976127;28;20045;-80
2022/12/24 06:59:13;;;;;;;10.32;1.70;;;6.90;99.90;;;;;;5007252;28;20037;-78
2022/12/24 07:01:39;;;;;;;6.95;1.70;;;6.90;99.90;;;;;;4979868;28;20446;-77
2022/12/24 07:04:05;;;;;;;8.35;1.20;;;6.90;99.90;;;;;;5009268;28;20037;-78
2022/12/24 07:06:31;;;;;;;9.70;1.95;;;7.00;99.90;;;;;;4982045;28;20030;-79
2022/12/24 07:08:57;;;;;;;8.15;1.25;;;7.00;99.90;;;;;;4974228;28;20031;-80
2022/12/24 07:11:24;;;;;;;9.38;1.25;;;7.00;99.90;;;;;;5014886;28;20030;-79
2022/12/24 07:13:50;;;;;;;8.32;1.35;;;7.00;99.90;;;;;;4961580;28;20516;-79
2022/12/24 07:16:17;;;;;;;8.02;1.58;;;7.00;99.90;;;;;;4987915;28;20094;-81
2022/12/24 07:18:43;;;;;;;10.20;1.35;;;7.00;99.90;;;;;;4993910;28;20120;-79
2022/12/24 07:21:09;;;;;;;8.43;1.42;;;7.00;99.90;;;;;;4994720;28;20127;-79
2022/12/24 07:23:35;;;;;;;10.73;1.45;;;7.00;99.90;;;;;;4993068;28;20037;-78
2022/12/24 07:26:04;;;;;;;9.90;1.83;;;7.00;99.90;;;;;;4995067;28;20434;-80
2022/12/24 07:28:30;;;;;;;7.47;1.73;;;7.00;99.90;;;;;;5002512;28;20018;-79
2022/12/24 07:30:57;;;;;;;10.98;1.60;;;7.00;99.90;;;;;;5012464;28;20033;-79
2022/12/24 07:33:24;;;;;;;6.30;1.60;;;7.00;99.90;;;;;;5021221;28;20074;-81
2022/12/24 07:36:02;;;;;;;6.43;1.30;;;7.10;99.90;;;;;;4991691;28;20587;-79
2022/12/24 07:38:29;;;;;;;5.93;1.67;;;7.10;99.90;;;;;;4974556;28;20986;-81
2022/12/24 07:40:55;;;;;;;10.60;1.80;;;7.10;99.90;;;;;;4975799;28;20046;-78
2022/12/24 07:43:22;;;;;;;4.80;1.50;;;7.10;99.90;;;;;;4989240;28;20069;-79
2022/12/24 07:45:48;;;;;;;7.82;1.15;;;7.10;99.90;;;;;;4976997;28;20038;-80
2022/12/24 07:48:13;;;;;;;9.68;1.92;;;7.10;99.90;;;;;;4959349;28;20041;-80
2022/12/24 07:50:40;;;;;;;6.22;1.15;;;7.10;99.90;;;;;;4979952;28;22158;-79
2022/12/24 07:53:06;;;;;;;9.77;1.67;;;7.10;99.90;;;;;;5006743;28;20446;-79
2022/12/24 07:55:32;;;;;;;13.27;1.88;;;7.10;99.90;;;;;;4975822;28;20037;-80
2022/12/24 07:57:58;;;;;;;12.48;2.70;;;7.10;99.90;;;;;;4988703;28;20091;-80
2022/12/24 08:00:24;;;;;;;7.07;1.20;;;7.10;99.90;;;;;;4990444;28;20061;-79
2022/12/24 08:02:50;;;;;;;6.88;1.42;;;7.10;99.90;;;;;;4991556;28;20426;-80
2022/12/24 08:05:16;;;;;;;9.40;1.25;;;7.20;99.90;;;;;;4976468;28;20045;-80
2022/12/24 08:07:42;;;;;;;9.07;1.50;;;7.20;99.90;;;;;;4975677;28;20209;-79
2022/12/24 08:10:08;;;;;;;17.02;2.35;;;7.20;99.90;;;;;;4977949;28;20036;-77
2022/12/24 08:12:34;;;;;;;6.13;1.30;;;7.20;99.90;;;;;;4992615;28;20025;-79
2022/12/24 08:15:00;;;;;;;6.05;1.77;;;7.20;99.90;;;;;;5008719;28;20402;-79
2022/12/24 08:17:25;;;;;;;9.15;1.58;;;7.20;99.90;;;;;;4976919;28;20029;-78
2022/12/24 08:19:51;;;;;;;11.07;2.30;;;7.20;99.90;;;;;;4994492;28;20104;-79
2022/12/24 08:22:17;;;;;;;9.73;1.85;;;7.20;99.90;;;;;;4990117;28;20066;-80
2022/12/24 08:24:43;;;;;;;6.93;1.45;;;7.30;99.90;;;;;;4975556;28;20053;-79
2022/12/24 08:27:09;;;;;;;6.72;2.08;;;7.30;99.90;;;;;;4998278;28;20642;-78
2022/12/24 08:29:34;;;;;;;13.10;1.70;;;7.30;99.90;;;;;;4981312;28;20030;-79
2022/12/24 08:32:00;;;;;;;10.07;1.60;;;7.30;99.90;;;;;;5016153;28;20068;-79
2022/12/24 08:34:27;;;;;;;10.77;1.50;;;7.30;99.90;;;;;;4995514;28;20365;-79
2022/12/24 08:36:53;;;;;;;12.60;1.98;;;7.40;99.90;;;;;;4991398;28;20037;-79
2022/12/24 08:39:19;;;;;;;9.43;1.48;;;7.40;99.90;;;;;;4999458;28;20096;-79
2022/12/24 08:41:44;;;;;;;7.78;1.40;;;7.30;99.90;;;;;;4995270;28;20054;-78
2022/12/24 08:44:10;;;;;;;10.15;1.40;;;7.30;99.90;;;;;;4985181;28;20030;-79
2022/12/24 08:46:36;;;;;;;6.18;1.73;;;7.40;99.90;;;;;;5003936;28;20040;-80
2022/12/24 08:49:02;;;;;;;6.80;1.70;;;7.40;99.90;;;;;;4990800;28;20032;-79
2022/12/24 08:51:28;;;;;;;11.00;2.00;;;7.50;99.90;;;;;;4956311;28;20046;-78
2022/12/24 08:53:54;;;;;;;9.48;1.65;;;7.50;99.90;;;;;;4993016;28;20038;-79
2022/12/24 08:56:19;;;;;;;13.32;1.80;;;7.50;99.90;;;;;;5021775;28;20088;-79
2022/12/24 08:58:47;;;;;;;9.75;1.98;;;7.50;99.90;;;;;;5008067;28;20025;-78
2022/12/24 09:01:18;;;;;;;5.90;1.70;;;7.50;99.90;;;;;;5017057;28;20041;-79
2022/12/24 09:03:44;;;;;;;10.07;1.70;;;7.40;99.90;;;;;;4999985;28;20109;-78
2022/12/24 09:06:10;;;;;;;12.75;2.03;;;7.50;99.90;;;;;;4989780;28;20038;-80
2022/12/24 09:08:36;;;;;;;9.15;2.05;;;7.40;99.90;;;;;;4982301;28;20026;-79
2022/12/24 09:11:15;;;;;;;7.68;1.83;;;7.50;99.90;;;;;;4996284;28;20029;-79
2022/12/24 09:13:41;;;;;;;9.75;1.75;;;7.50;99.90;;;;;;4992262;28;20021;-78
2022/12/24 09:16:07;;;;;;;7.68;1.77;;;7.40;99.90;;;;;;4993630;28;20041;-79
2022/12/24 09:18:33;;;;;;;11.48;1.52;;;7.40;99.90;;;;;;5008159;28;20695;-79
2022/12/24 09:21:05;;;;;;;11.10;1.85;;;7.50;99.90;;;;;;5012280;28;20462;-79
2022/12/24 09:23:33;;;;;;;12.90;2.10;;;7.50;99.90;;;;;;4990746;28;20502;-79
2022/12/24 09:25:59;;;;;;;14.45;2.03;;;7.50;99.90;;;;;;4992338;28;20076;-79
2022/12/24 09:28:25;;;;;;;15.07;1.83;;;7.50;99.90;;;;;;4995518;28;20018;-79
2022/12/24 09:30:56;;;;;;;16.75;2.65;;;7.50;99.90;;;;;;5007437;28;20033;-79
2022/12/24 09:33:22;;;;;;;12.23;2.10;;;7.50;99.90;;;;;;5004712;28;20034;-79
2022/12/24 09:35:52;;;;;;;15.13;2.45;;;7.50;99.90;;;;;;4997663;28;20034;-79
2022/12/24 09:38:19;;;;;;;14.60;1.77;;;7.50;99.90;;;;;;4989038;28;20568;-79
2022/12/24 09:40:46;;;;;;;10.10;2.15;;;7.50;99.90;;;;;;4994703;28;20052;-79
2022/12/24 09:43:19;;;;;;;4.35;1.30;;;7.50;99.90;;;;;;5013156;28;20050;-78
2022/12/24 09:46:07;;;;;;;9.05;1.65;;;7.50;99.90;;;;;;4993247;28;20474;-78
2022/12/24 09:48:36;;;;;;;12.65;2.00;;;7.50;99.90;;;;;;5011297;28;20046;-79
2022/12/24 09:51:27;;;;;;;9.45;1.98;;;7.60;99.90;;;;;;4975639;28;20033;-80
2022/12/24 09:54:00;;;;;;;9.05;1.95;;;7.70;99.90;;;;;;4990280;28;20034;-79
2022/12/24 09:56:30;;;;;;;13.05;1.92;;;7.70;99.90;;;;;;4993930;28;20045;-78
2022/12/24 09:59:03;;;;;;;13.63;2.70;;;7.70;99.90;;;;;;5016084;28;20034;-78
2022/12/24 10:01:30;;;;;;;9.25;1.50;;;7.80;99.90;;;;;;5015789;28;21318;-78
2022/12/24 10:04:04;;;;;;;17.40;2.65;;;7.80;99.90;;;;;;4984092;28;20034;-79
2022/12/24 10:06:46;;;;;;;10.52;2.15;;;7.90;99.90;;;;;;5000034;28;20584;-78
2022/12/24 10:09:17;;;;;;;12.05;2.17;;;7.90;99.90;;;;;;5015670;28;20460;-79
2022/12/24 10:12:15;;;;;;;12.38;2.53;;;8.00;99.90;;;;;;5013750;28;20029;-80
2022/12/24 10:15:29;;;;;;;12.05;2.35;;;8.00;99.90;;;;;;5004609;28;20482;-82
2022/12/24 10:18:37;;;;;;;8.60;2.50;;;8.00;99.90;;;;;;4996846;28;20051;-79
2022/12/24 10:21:22;;;;;;;10.23;2.25;;;8.10;99.90;;;;;;4962473;28;20062;-79
2022/12/24 10:23:59;;;;;;;8.73;2.10;;;8.00;99.90;;;;;;5009450;28;20088;-81
2022/12/24 10:26:29;;;;;;;7.35;2.22;;;8.10;99.90;;;;;;5015171;28;20041;-78
2022/12/24 10:29:05;;;;;;;13.38;3.88;;;8.10;99.90;;;;;;4980556;28;20125;-79
2022/12/24 10:32:08;;;;;;;7.85;1.90;;;8.10;99.90;;;;;;5015764;28;20033;-78
2022/12/24 10:35:13;;;;;;;13.93;2.92;;;8.10;99.90;;;;;;5011163;28;20052;-80
2022/12/24 10:37:41;;;;;;;6.47;2.00;;;8.10;99.90;;;;;;5010049;28;20046;-79
2022/12/24 10:40:27;;;;;;;13.13;2.42;;;8.00;99.90;;;;;;4976921;28;20042;-80
2022/12/24 10:42:53;;;;;;;74.18;4.85;;;8.00;99.90;;;;;;5016521;28;20049;-80
2022/12/24 10:45:25;;;;;;;40.30;3.85;;;8.00;99.90;;;;;;5024731;28;20038;-79
2022/12/24 10:48:00;;;;;;;71.93;4.40;;;8.00;99.90;;;;;;4998278;28;20064;-80
2022/12/24 10:50:45;;;;;;;66.38;3.75;;;8.10;99.90;;;;;;5001920;28;20084;-79
2022/12/24 10:53:43;;;;;;;3.70;1.67;;;8.10;99.90;;;;;;5011505;28;20091;-79
2022/12/24 10:56:14;;;;;;;10.48;2.10;;;8.10;99.90;;;;;;5015586;28;20289;-80
2022/12/24 10:58:52;;;;;;;21.75;3.08;;;8.10;99.90;;;;;;5012114;28;20030;-77
2022/12/24 11:01:20;;;;;;;4.35;1.60;;;8.10;99.90;;;;;;5027436;28;20049;-80
2022/12/24 11:04:00;;;;;;;6.30;1.42;;;8.20;99.90;;;;;;4994898;28;20057;-78
2022/12/24 11:06:26;;;;;;;3.42;1.20;;;8.20;99.90;;;;;;4993768;28;20034;-79
2022/12/24 11:08:51;;;;;;;10.55;2.17;;;8.20;99.90;;;;;;4982711;28;20042;-80
2022/12/24 11:11:19;;;;;;;188.52;9.13;;;8.10;99.90;;;;;;4995977;28;20082;-81
2022/12/24 11:13:55;;;;;;;26.55;4.72;;;8.10;99.90;;;;;;4996063;28;20131;-80
2022/12/24 11:16:29;;;;;;;12.07;1.42;;;8.20;99.90;;;;;;5029384;28;20041;-78
2022/12/24 11:18:57;;;;;;;11.80;1.90;;;8.20;99.90;;;;;;4974877;28;20049;-80
2022/12/24 11:21:33;;;;;;;32.72;3.58;;;8.20;99.90;;;;;;4990389;28;20025;-78
2022/12/24 11:24:00;;;;;;;17.95;2.65;;;8.30;99.90;;;;;;5011598;28;20037;-80
2022/12/24 11:26:29;;;;;;;63.95;3.42;;;8.40;99.90;;;;;;5025425;28;20624;-82
2022/12/24 11:29:22;;;;;;;10.98;1.40;;;8.40;99.90;;;;;;4988117;28;20535;-81
2022/12/24 11:31:51;;;;;;;5.68;1.63;;;8.40;99.90;;;;;;4991901;28;20038;-80
2022/12/24 11:34:17;;;;;;;41.05;3.28;;;8.40;99.90;;;;;;4997785;28;20057;-82
2022/12/24 11:36:44;;;;;;;92.30;6.82;;;8.40;99.90;;;;;;4979918;28;20513;-81
2022/12/24 11:39:22;;;;;;;2.83;1.30;;;8.40;99.90;;;;;;4979563;28;20049;-81
2022/12/24 11:41:49;;;;;;;8.65;2.05;;;8.50;99.90;;;;;;4992955;28;20048;-82
2022/12/24 11:44:25;;;;;;;21.00;2.40;;;8.50;99.90;;;;;;5028168;28;20034;-82
2022/12/24 11:46:55;;;;;;;56.63;4.22;;;8.50;99.90;;;;;;5005703;28;20030;-82
2022/12/24 11:49:31;;;;;;;41.20;2.85;;;8.50;99.90;;;;;;4978436;28;20782;-82
2022/12/24 11:52:22;;;;;;;159.52;10.60;;;8.50;99.90;;;;;;4974283;28;20034;-81
2022/12/24 11:54:50;;;;;;;108.38;6.57;;;8.50;99.90;;;;;;4984141;28;20050;-82
2022/12/24 11:57:19;;;;;;;65.55;4.35;;;8.60;99.90;;;;;;4983449;28;20049;-81
2022/12/24 11:59:48;;;;;;;147.88;7.13;;;8.50;99.90;;;;;;5000792;28;20113;-81
2022/12/24 12:02:32;;;;;;;109.43;6.35;;;8.60;99.90;;;;;;4978765;28;20065;-83
2022/12/24 12:05:03;;;;;;;144.52;9.10;;;8.70;99.90;;;;;;4991463;28;20094;-82
2022/12/24 12:07:35;;;;;;;53.53;2.90;;;8.70;99.90;;;;;;5013351;28;20038;-82
2022/12/24 12:10:24;;;;;;;62.55;3.17;;;8.70;99.90;;;;;;4961533;28;20037;-82
2022/12/24 12:13:08;;;;;;;13.32;2.90;;;8.70;99.90;;;;;;4994997;28;20045;-81
2022/12/24 12:15:39;;;;;;;9.27;1.70;;;8.80;99.90;;;;;;4995736;28;20757;-82
2022/12/24 12:18:13;;;;;;;32.67;2.63;;;8.80;99.90;;;;;;4970234;28;20077;-81
2022/12/24 12:20:44;;;;;;;33.88;2.40;;;8.70;99.90;;;;;;5012325;28;20073;-80
2022/12/24 12:23:48;;;;;;;17.05;2.47;;;8.70;99.90;;;;;;4979911;28;20037;-80
2022/12/24 12:26:23;;;;;;;50.75;3.95;;;8.70;99.90;;;;;;4959129;28;20053;-81
2022/12/24 12:29:00;;;;;;;29.52;2.40;;;8.70;99.90;;;;;;5021719;28;20113;-81
2022/12/24 12:31:35;;;;;;;81.85;7.50;;;8.70;99.90;;;;;;5010432;28;20033;-81
2022/12/24 12:34:08;;;;;;;126.65;10.45;;;8.60;99.90;;;;;;5010476;28;20092;-80
2022/12/24 12:37:04;;;;;;;42.55;3.70;;;8.60;99.90;;;;;;5018226;28;20106;-81
2022/12/24 12:39:30;;;;;;;14.10;2.13;;;8.60;99.90;;;;;;5000932;28;20101;-80
2022/12/24 12:42:19;;;;;;;3.13;1.17;;;8.50;99.90;;;;;;4992272;28;20486;-80
2022/12/24 12:45:12;;;;;;;171.73;9.70;;;8.50;99.90;;;;;;4984281;28;20021;-81
2022/12/24 12:47:44;;;;;;;44.50;3.20;;;8.50;99.90;;;;;;4987565;28;20541;-80
2022/12/24 12:50:16;;;;;;;14.20;1.67;;;8.40;99.90;;;;;;4992622;28;20045;-81
2022/12/24 12:52:48;;;;;;;14.95;2.15;;;8.50;99.90;;;;;;5019657;28;20490;-80
2022/12/24 12:55:29;;;;;;;12.02;2.47;;;8.50;99.90;;;;;;4986457;28;20458;-81
2022/12/24 12:58:02;;;;;;;10.50;1.58;;;8.60;99.90;;;;;;4985516;28;20368;-83
2022/12/24 13:00:33;;;;;;;9.00;1.52;;;8.60;99.90;;;;;;4997334;28;20403;-80
2022/12/24 13:03:33;;;;;;;10.73;2.03;;;8.50;99.90;;;;;;4983049;28;20477;-82
2022/12/24 13:06:21;;;;;;;12.52;1.58;;;8.50;99.90;;;;;;4959646;28;20041;-81
2022/12/24 13:08:56;;;;;;;6.47;1.55;;;8.40;99.90;;;;;;5004708;28;20495;-82
2022/12/24 13:12:02;;;;;;;17.77;1.73;;;8.40;99.90;;;;;;5006612;28;20055;-82
2022/12/24 13:15:04;;;;;;;11.55;1.45;;;8.30;99.90;;;;;;5005824;28;20030;-80
2022/12/24 13:17:57;;;;;;;17.73;1.42;;;8.30;99.90;;;;;;4979839;28;20461;-82
2022/12/24 13:20:30;;;;;;;9.23;1.63;;;8.20;99.90;;;;;;4987016;28;20050;-82